Terminal Aerodrome Forecast
Issued by NWS Tiyan, Guam

Home | Current Version | Previous Version | Text Only | Print | Product List | Glossary On
Versions: 1 2 3 4 5 6 7 8 9 10 11 12 13 14
000
FTPQ31 PGUM 251728
TAFGUM
TAF
PGUM 251728Z 2518/2624 07011KT 6SM SHRA VCTS SCT018CB SCT030 BKN120
      TEMPO 2518/2522 3SM +SHRA SCT018 OVC030
     FM260100 10011KT P6SM VCSH SCT020 BKN120
     FM260800 09008KT P6SM VCSH SCT018 BKN120=

USA.gov is the U.S. government's official web portal to all federal, state and local government web resources and services.